Latest Coastal Weather Observations for Merimbula

IDN60701

Issued at 7:02 am EST Thursday 28 July 2016 (issued every 10 minutes, with the page automatically refreshed every 10 minutes)

About coastal observations | Map of coastal stations | Coastal observations for NSW | Marine services | Other Formats
Station Details ID: 069147 Name: MERIMBULA AIRPORT AWS Lat: -36.91 Lon: 149.90 Height: 1.5 m
Data from the previous 72 hours. | See also: Recent months at Merimbula
Date/Time
EST
Temp
°C
Wind Pressure Rain since
9am
mm
Weather Cloud Vis
km
Sea
Height
m
Swell
Dir  Spd
kts
Gust
kts
hPa Trend Height
m
Period
s
Dir
28/07:00am 6.0 WNW 1 5 1020.5 - 0.0 - - 10 - - - -
28/06:30am 6.2 NNW 1 4 1020.1 - 0.0 - - 10 - - - -
28/06:00am 6.6 NW 5 8 1019.9 - 0.0 - - 10 - - - -
28/05:30am 7.7 NW 5 7 1019.6 - 0.0 - - 10 - - - -
28/05:00am 8.0 NW 3 8 1019.9 - 0.0 - - 10 - - - -
28/04:30am 10.0 WNW 6 10 1019.6 - 0.0 - - 10 - - - -
28/04:00am 9.9 WNW 8 11 1019.3 - 0.0 - - 10 - - - -
28/03:30am 9.7 WNW 9 11 1019.0 - 0.0 - - 10 - - - -
28/03:00am 8.9 WNW 9 12 1018.8 - 0.0 - - 10 - - - -
28/02:30am 7.0 NW 7 11 1018.7 - 0.0 - - 10 - - - -
28/02:00am 6.3 NNW 5 7 1018.9 - 0.0 - - 10 - - - -
28/01:30am 6.6 NW 6 8 1018.6 - 0.0 - - 10 - - - -
28/01:00am 8.1 WNW 7 11 1018.3 - 0.0 - - 10 - - - -
28/12:30am 6.9 WNW 8 10 1018.3 - 0.0 - - 10 - - - -
28/12:00am 6.1 W 9 11 1018.3 - 0.0 - - 10 - - - -
 
Date/Time
EST
Temp
°C
Wind Pressure Rain since
9am
mm
Weather Cloud Vis
km
Sea
Height
m
Swell
Dir  Spd
kts
Gust
kts
hPa Trend Height
m
Period
s
Dir
27/11:30pm 4.9 NW 1 7 1018.7 - 0.0 - - 10 - - - -
27/11:00pm 5.1 CALM 0 0 1019.1 - 0.0 - - 10 - - - -
27/10:30pm 5.4 SSW 3 5 1019.0 - 0.0 - - 10 - - - -
27/10:00pm 5.1 CALM 0 0 1019.0 - 0.0 - - 10 - - - -
27/09:30pm 6.2 SSW 3 6 1018.9 - 0.0 - - 10 - - - -
27/09:00pm 7.3 N 4 6 1018.2 - 0.0 - - 10 - - - -
27/08:30pm 8.2 SSW 5 6 1017.8 - 0.0 - - 10 - - - -
27/08:00pm 8.2 SW 4 8 1017.0 - 0.0 - - 10 - - - -
27/07:30pm 8.9 SSW 6 7 1016.7 - 0.0 - - 10 - - - -
27/07:00pm 9.4 CALM 0 4 1016.4 - 0.0 - - 10 - - - -
27/06:30pm 10.5 SW 7 10 1015.4 - 0.0 - - 10 - - - -
27/06:00pm 11.1 SW 9 12 1014.2 - 0.0 - - 10 - - - -
27/05:30pm 11.9 SSW 8 15 1013.5 - 0.0 - - 10 - - - -
27/05:00pm 13.0 SSW 8 11 1012.9 - 0.0 - - 10 - - - -
27/04:30pm 14.4 SSW 9 13 1012.4 - 0.0 - - 10 - - - -
27/04:00pm 15.6 SSW 10 14 1011.8 - 0.0 - Partly cloudy 10 - - - -
27/03:30pm 17.5 SSW 6 9 1011.2 - 0.0 - Partly cloudy 10 - - - -
27/03:00pm 17.5 W 8 14 1010.8 - 0.0 - Mostly clear 10 - - - -
27/02:30pm 17.5 SW 5 9 1010.4 - 0.0 - Partly cloudy 10 - - - -
27/02:00pm 16.6 SSW 5 9 1010.3 - 0.0 - Partly cloudy 10 - - - -
27/01:30pm 16.5 SW 5 9 1010.1 - 0.0 - Partly cloudy 10 - - - -
27/01:00pm 16.5 WSW 6 10 1010.1 - 0.0 - Cloudy 10 - - - -
27/12:30pm 16.6 WSW 8 13 1010.0 - 0.0 - Cloudy 10 - - - -
27/12:00pm 17.3 WSW 8 16 1009.9 - 0.0 - Cloudy 10 - - - -
27/11:30am 16.3 SW 7 12 1009.7 - 0.0 - - 10 - - - -
27/11:00am 16.1 WNW 7 10 1009.8 - 0.0 - - 10 - - - -
27/10:30am 15.2 W 8 13 1009.6 - 0.0 - - 10 - - - -
27/10:00am 14.0 W 8 13 1009.3 - 0.0 - - 10 - - - -
27/09:30am 11.5 CALM 0 0 1009.0 - 0.0 - - 10 - - - -
27/09:00am 8.8 CALM 0 0 1008.6 - 0.0 - - 10 - - - -
27/08:30am 5.7 SW 4 6 1008.3 - 0.0 - Partly cloudy 10 - - - -
27/08:00am 4.6 WSW 3 6 1007.9 - 0.0 - Partly cloudy 10 - - - -
27/07:30am 4.3 CALM 0 0 1007.6 - 0.0 - Partly cloudy 10 - - - -
27/07:00am 3.9 WNW 2 5 1007.5 - 0.0 - - 10 - - - -
27/06:30am 3.4 CALM 0 0 1007.1 - 0.0 - - 10 - - - -
27/06:00am 3.8 W 4 9 1006.6 - 0.0 - Mostly cloudy 10 - - - -
27/05:30am 2.9 SSW 5 7 1006.6 - 0.0 - - 10 - - - -
27/05:00am 3.3 WSW 1 4 1006.4 - 0.0 - - 10 - - - -
27/04:30am 3.0 SSW 4 7 1006.7 - 0.0 - - 10 - - - -
27/04:00am 3.4 SSW 1 5 1006.9 - 0.0 - - 10 - - - -
27/03:30am 3.6 SSW 5 7 1007.1 - 0.0 - - 10 - - - -
27/03:00am 3.4 SW 3 6 1007.2 - 0.0 - Mostly cloudy 10 - - - -
27/02:30am 3.3 WSW 1 4 1007.4 - 0.0 - - 10 - - - -
27/02:00am 3.4 SSW 5 6 1008.0 - 0.0 - - 10 - - - -
27/01:30am 3.6 SSW 4 6 1008.0 - 0.0 - - 10 - - - -
27/01:00am 4.7 NW 7 10 1008.8 - 0.0 - - 10 - - - -
27/12:30am 5.2 WNW 5 8 1008.8 - 0.0 - - 10 - - - -
27/12:00am 6.0 NNW 5 6 1009.0 - 0.0 - Mostly clear 10 - - - -
 
Date/Time
EST
Temp
°C
Wind Pressure Rain since
9am
mm
Weather Cloud Vis
km
Sea
Height
m
Swell
Dir  Spd
kts
Gust
kts
hPa Trend Height
m
Period
s
Dir
26/11:30pm 6.4 NW 4 6 1009.1 - 0.0 - - 10 - - - -
26/11:00pm 7.8 NW 5 6 1009.4 - 0.0 - - 10 - - - -
26/10:30pm 8.1 WNW 8 11 1009.4 - 0.0 - - 10 - - - -
26/10:00pm 6.9 WSW 6 9 1009.8 - 0.0 - - 10 - - - -
26/09:30pm 7.5 WNW 5 8 1010.0 - 0.0 - - 10 - - - -
26/09:00pm 8.3 NW 7 10 1010.1 - 0.0 - - 10 - - - -
26/08:30pm 5.8 SSW 4 6 1010.3 - 0.0 - - 10 - - - -
26/08:00pm 5.9 W 6 8 1010.5 - 0.0 - - 10 - - - -
26/07:30pm 6.2 WSW 3 5 1010.4 - 0.0 - - 10 - - - -
26/07:00pm 6.7 NW 5 6 1010.1 - 0.0 - - 10 - - - -
26/06:30pm 6.8 WNW 1 4 1010.3 - 0.0 - - 10 - - - -
26/06:00pm 8.0 WNW 1 5 1010.1 - 0.0 - - 10 - - - -
26/05:30pm 10.0 SW 1 5 1009.9 - 0.0 - - 10 - - - -
26/05:00pm 12.9 NNW 4 8 1009.6 - 0.0 - - 10 - - - -
26/04:30pm 15.2 NNW 6 9 1009.3 - 0.0 - Partly cloudy 10 - - - -
26/04:00pm 16.0 N 6 9 1009.3 - 0.0 - - 10 - - - -
26/03:30pm 16.4 NNW 6 10 1009.4 - 0.0 - Partly cloudy 10 - - - -
26/03:00pm 15.9 E 6 10 1009.5 - 0.0 - - 10 - - - -
26/02:30pm 15.3 ENE 8 13 1009.7 - 0.0 - - 10 - - - -
26/02:00pm 15.5 ENE 9 13 1009.9 - 0.0 - - 10 - - - -
26/01:30pm 15.0 NE 8 13 1010.0 - 0.0 - - 10 - - - -
26/01:00pm 15.3 NNE 5 9 1010.2 - 0.0 - - 10 - - - -
26/12:30pm 15.9 W 7 10 1010.4 - 0.0 - - 10 - - - -
26/12:00pm 15.5 WNW 9 15 1010.8 - 0.0 - - 10 - - - -
26/11:30am 15.4 NW 9 14 1011.1 - 0.0 - - 10 - - - -
26/11:00am 14.8 WNW 7 11 1011.6 - 0.0 - - 10 - - - -
26/10:30am 14.4 WNW 9 15 1011.7 - 0.0 - - 10 - - - -
26/10:00am 14.2 NW 12 17 1011.5 - 0.0 - - 10 - - - -
26/09:30am 13.4 NNW 6 11 1011.6 - 0.0 - - 10 - - - -
26/09:00am 12.9 SSW 5 8 1011.3 - 0.0 - - 10 - - - -
26/08:30am 12.4 WSW 7 14 1011.1 - 0.0 - - 10 - - - -
26/08:00am 11.4 WNW 9 16 1010.7 - 0.0 - - 10 - - - -
26/07:30am 10.3 WNW 11 16 1010.1 - 0.0 - - 10 - - - -
26/07:00am 10.2 WNW 9 12 1009.9 - 0.0 - - 10 - - - -
26/06:30am 10.8 WNW 10 15 1009.5 - 0.0 - - 10 - - - -
26/06:00am 11.5 WNW 12 18 1009.0 - 0.0 - - 10 - - - -
26/05:30am 12.0 WNW 13 19 1008.3 - 0.0 - - 10 - - - -
26/05:00am 12.1 W 11 17 1007.9 - 0.0 - - 10 - - - -
26/04:30am 12.2 W 9 15 1007.2 - 0.0 - - 10 - - - -
26/04:00am 11.9 W 8 12 1006.9 - 0.0 - - 10 - - - -
26/03:30am 12.5 W 9 14 1006.6 - 0.0 - Partly cloudy 10 - - - -
26/03:00am 12.5 W 7 11 1006.1 - 0.0 - - 10 - - - -
26/02:30am 12.7 WNW 7 12 1005.8 - 0.0 - - 10 - - - -
26/02:00am 13.4 WNW 8 18 1005.4 - 0.0 - - 10 - - - -
26/01:30am 12.9 WNW 7 10 1005.1 - 0.0 - - 10 - - - -
26/01:00am 12.6 NW 8 11 1004.7 - 0.0 - - 10 - - - -
26/12:30am 13.0 WNW 11 18 1004.5 - 0.0 - - 10 - - - -
26/12:00am 13.2 WNW 14 23 1004.2 - 0.0 - - 10 - - - -
 
Date/Time
EST
Temp
°C
Wind Pressure Rain since
9am
mm
Weather Cloud Vis
km
Sea
Height
m
Swell
Dir  Spd
kts
Gust
kts
hPa Trend Height
m
Period
s
Dir
25/11:30pm 13.5 WNW 16 22 1004.3 - 0.0 - - 10 - - - -
25/11:03pm 13.3 WNW 17 28 1004.2 - 0.0 - - 10 - - - -
25/11:00pm 13.2 WNW 17 22 1004.2 - 0.0 - - 10 - - - -
25/10:37pm 13.2 NW 16 28 1004.2 - 0.0 - - 10 - - - -
25/10:30pm 13.1 WNW 15 23 1004.4 - 0.0 - - 10 - - - -
25/10:00pm 13.1 NW 12 19 1004.7 - 0.0 - - 10 - - - -
25/09:30pm 12.1 WSW 6 13 1005.3 - 0.0 - - 10 - - - -
25/09:00pm 13.1 NW 11 18 1004.9 - 0.0 - - 10 - - - -
25/08:30pm 13.0 NNW 10 15 1004.8 - 0.0 - - 10 - - - -
25/08:00pm 12.7 NNW 10 16 1005.2 - 0.0 - - 10 - - - -
25/07:59pm 12.7 NNW 10 16 1005.3 - 0.0 - - 10 - - - -
25/07:30pm 7.7 W 3 6 1005.5 - 0.0 - - 10 - - - -
25/07:00pm 7.5 CALM 0 0 1005.8 - 0.0 - - 10 - - - -
25/06:30pm 8.5 CALM 0 0 1005.5 - 0.0 - - 10 - - - -
25/06:00pm 8.6 N 3 5 1005.9 - 0.0 - - 10 - - - -
25/05:30pm 9.6 CALM 0 0 1005.8 - 0.0 - - 10 - - - -
25/05:00pm 12.4 WNW 1 5 1005.4 - 0.0 - - 10 - - - -
25/04:30pm 15.4 NW 3 5 1005.5 - 0.0 - - 10 - - - -
25/04:00pm 15.3 NNE 4 7 1005.7 - 0.0 - - 10 - - - -
25/03:30pm 15.4 NNE 6 10 1006.1 - 0.0 - - 10 - - - -
25/03:00pm 15.0 NE 7 12 1006.1 - 0.0 - - 10 - - - -
25/02:30pm 15.3 NE 8 12 1006.4 - 0.0 - - 10 - - - -
25/02:00pm 15.2 NE 9 15 1006.4 - 0.0 - - 10 - - - -
25/01:30pm 15.1 NE 7 11 1006.7 - 0.0 - - 10 - - - -
25/01:00pm 15.4 ENE 8 11 1006.9 - 0.0 - - 10 - - - -
25/12:30pm 15.6 E 6 9 1007.2 - 0.0 - - 10 - - - -
25/12:00pm 15.9 NE 3 6 1007.8 - 0.0 - - 10 - - - -
25/11:30am 15.3 E 5 8 1008.0 - 0.0 - - 10 - - - -
25/11:00am 14.5 NNW 2 7 1008.6 - 0.0 - - 10 - - - -
25/10:30am 13.6 CALM 0 3 1008.8 - 0.0 - - 10 - - - -
25/10:00am 12.1 CALM 0 0 1008.8 - 0.0 - - 10 - - - -
25/09:30am 11.1 CALM 0 0 1008.7 - 0.0 - - 10 - - - -
25/09:00am 8.4 CALM 0 0 1008.8 - 0.0 - - 10 - - - -
25/08:30am 6.4 NW 4 5 1008.7 - 0.0 - - 10 - - - -
25/08:00am 4.7 NW 4 5 1008.4 - 0.0 - - 10 - - - -
25/07:30am 3.5 NW 4 7 1008.1 - 0.0 - - 10 - - - -

Other Formats:

Comma delimited format used in spreadsheet applications
http://www.bom.gov.au/fwo/IDN60701/IDN60701.95929.axf

JavaScript Object Notation format (JSON) in row-major order
http://www.bom.gov.au/fwo/IDN60701/IDN60701.95929.json